Time;durP1;ratioP1;P1;durP2;ratioP2;P2;SDS_P1;SDS_P2;PMS_P1;PMS_P2;Temp;Humidity;BMP_temperature;BMP_pressure;BME280_temperature;BME280_humidity;BME280_pressure;Samples;Min_cycle;Max_cycle;Signal;HPM_P1;HPM_P2
2022/08/25 00:03:41;;;;;;;3.17;2.30;;;;;;;14.20;100.00;102054.91;6242043;22;20025;-83
2022/08/25 00:06:08;;;;;;;3.97;2.10;;;;;;;14.45;100.00;102098.72;6216307;23;19992;-83
2022/08/25 00:08:36;;;;;;;4.35;2.13;;;;;;;14.31;100.00;102069.84;6242953;23;19997;-84
2022/08/25 00:11:06;;;;;;;4.53;2.35;;;;;;;14.93;100.00;102174.00;6186575;23;20041;-84
2022/08/25 00:13:33;;;;;;;5.68;2.00;;;;;;;14.94;100.00;102162.97;6187508;23;20020;-83
2022/08/25 00:15:58;;;;;;;8.63;2.40;;;;;;;15.37;100.00;102221.75;6186341;23;20001;-83
2022/08/25 00:18:25;;;;;;;4.47;2.00;;;;;;;15.77;100.00;102304.31;6187590;23;20007;-83
2022/08/25 00:20:51;;;;;;;4.32;1.83;;;;;;;15.35;100.00;102216.50;6212300;23;19996;-84
2022/08/25 00:23:18;;;;;;;8.80;2.17;;;;;;;14.32;100.00;102049.84;6211535;23;20009;-84
2022/08/25 00:25:44;;;;;;;4.20;2.10;;;;;;;15.20;100.00;102189.47;6187001;23;20056;-84
2022/08/25 00:28:09;;;;;;;3.80;1.92;;;;;;;15.32;100.00;102218.78;6212968;23;19996;-83
2022/08/25 00:30:35;;;;;;;4.68;1.90;;;;;;;14.42;100.00;102060.34;6213139;23;20016;-83
2022/08/25 00:35:39;;;;;;;4.40;2.10;;;;;;;14.33;100.00;102056.91;6208295;23;20012;-83
2022/08/25 00:38:04;;;;;;;4.38;2.08;;;;;;;14.55;100.00;102104.66;6187929;23;20004;-84
2022/08/25 00:40:30;;;;;;;3.85;2.10;;;;;;;15.82;100.00;102301.84;6213176;23;19993;-84
2022/08/25 00:42:56;;;;;;;6.47;2.03;;;;;;;14.67;100.00;102118.56;6212495;23;19993;-83
2022/08/25 00:45:22;;;;;;;3.20;1.80;;;;;;;14.90;100.00;102160.84;6187664;23;19997;-84
2022/08/25 00:47:48;;;;;;;3.90;2.13;;;;;;;14.44;100.00;102090.78;6198768;23;20005;-83
2022/08/25 00:50:14;;;;;;;3.60;1.80;;;;;;;15.71;100.00;102297.78;6187028;23;20020;-84
2022/08/25 00:52:48;;;;;;;4.68;2.00;;;;;;;14.26;100.00;102080.38;6186962;23;19996;-83
2022/08/25 00:55:24;;;;;;;7.13;2.00;;;;;;;14.14;100.00;102080.06;6212478;23;20004;-83
2022/08/25 00:58:06;;;;;;;3.75;1.95;;;;;;;14.55;100.00;102136.34;6185799;23;20013;-83
2022/08/25 01:00:38;;;;;;;3.35;2.00;;;;;;;14.28;100.00;102110.81;6187372;23;20075;-83
2022/08/25 01:03:05;;;;;;;4.07;2.10;;;;;;;14.26;100.00;102127.25;6186062;23;20020;-83
2022/08/25 01:05:31;;;;;;;4.22;2.13;;;;;;;14.61;100.00;102191.63;6211990;23;20011;-82
2022/08/25 01:08:01;;;;;;;4.00;2.40;;;;;;;14.12;100.00;102108.34;6211044;23;19993;-83
2022/08/25 01:10:27;;;;;;;4.38;2.17;;;;;;;14.54;100.00;102181.56;6186837;23;19993;-84
2022/08/25 01:12:58;;;;;;;2.90;2.10;;;;;;;13.89;100.00;102074.16;6212176;23;20362;-83
2022/08/25 01:15:24;;;;;;;4.05;2.00;;;;;;;13.82;100.00;102068.66;6211777;23;20001;-83
2022/08/25 01:17:54;;;;;;;7.05;2.30;;;;;;;13.95;100.00;102078.81;6212130;23;20008;-83
2022/08/25 01:20:23;;;;;;;2.42;1.73;;;;;;;14.64;100.00;102193.97;6187445;23;20005;-83
2022/08/25 01:22:50;;;;;;;7.78;2.22;;;;;;;13.98;100.00;102070.31;6212323;23;20020;-83
2022/08/25 01:25:34;;;;;;;4.97;2.00;;;;;;;15.38;100.00;102302.06;6187353;23;20007;-83
2022/08/25 01:28:00;;;;;;;4.25;1.95;;;;;;;14.88;100.00;102234.22;6186598;23;20096;-83
2022/08/25 01:30:27;;;;;;;4.28;2.10;;;;;;;15.14;100.00;102297.88;6212159;23;20009;-83
2022/08/25 01:32:53;;;;;;;4.18;1.90;;;;;;;14.20;100.00;102159.66;6187404;23;20005;-83
2022/08/25 01:35:19;;;;;;;3.85;1.75;;;;;;;15.07;100.00;102305.13;6212839;23;19996;-83
2022/08/25 01:37:45;;;;;;;3.70;1.88;;;;;;;13.65;100.00;102085.31;6187020;23;20021;-83
2022/08/25 01:40:11;;;;;;;3.53;2.30;;;;;;;13.59;100.00;102087.72;6212832;23;19993;-83
2022/08/25 01:45:13;;;;;;;4.05;1.95;;;;;;;13.85;100.00;102135.91;6192318;23;20016;-84
2022/08/25 01:47:39;;;;;;;5.72;2.17;;;;;;;13.66;100.00;102130.25;6156118;23;20016;-84
2022/08/25 01:50:05;;;;;;;3.83;2.30;;;;;;;13.21;100.00;102045.53;6157146;23;20053;-83
2022/08/25 01:52:37;;;;;;;5.15;2.03;;;;;;;14.70;100.00;102302.41;6181573;23;20323;-83
2022/08/25 01:55:03;;;;;;;3.10;2.05;;;;;;;14.62;100.00;102307.06;6182731;23;20070;-83
2022/08/25 01:57:30;;;;;;;4.97;2.00;;;;;;;13.34;100.00;102102.53;6157058;23;20004;-83
2022/08/25 01:59:57;;;;;;;6.82;2.00;;;;;;;14.60;100.00;102306.41;6157723;23;20009;-84
2022/08/25 02:02:22;;;;;;;2.97;1.65;;;;;;;13.32;100.00;102112.72;6157092;23;20010;-83
2022/08/25 02:04:48;;;;;;;4.82;1.80;;;;;;;13.06;100.00;102073.41;6182336;23;19994;-83
2022/08/25 02:07:14;;;;;;;3.28;2.30;;;;;;;12.88;100.00;102035.94;6158657;23;20053;-83
2022/08/25 02:09:40;;;;;;;4.20;1.85;;;;;;;12.84;100.00;102050.81;6157969;23;19996;-84
2022/08/25 02:12:08;;;;;;;4.70;2.00;;;;;;;12.81;100.00;102056.59;6159082;23;20049;-84
2022/08/25 02:14:35;;;;;;;2.55;1.90;;;;;;;13.66;100.00;102185.19;6158697;23;20004;-82
2022/08/25 02:17:02;;;;;;;4.32;2.13;;;;;;;13.69;100.00;102221.84;6158918;23;20014;-83
2022/08/25 02:19:29;;;;;;;5.05;2.30;;;;;;;13.98;100.00;102304.91;6157573;23;20018;-83
2022/08/25 02:21:55;;;;;;;4.70;2.25;;;;;;;12.77;100.00;102114.69;6184380;23;20029;-85
2022/08/25 02:24:21;;;;;;;4.00;2.50;;;;;;;13.39;100.00;102201.00;6183799;23;20001;-82
2022/08/25 02:26:47;;;;;;;3.40;2.20;;;;;;;12.61;100.00;102085.97;6158321;23;20030;-84
2022/08/25 02:29:15;;;;;;;4.53;2.20;;;;;;;12.46;100.00;102068.88;6183367;23;20053;-83
2022/08/25 02:36:51;;;;;;;4.07;2.13;;;;;;;13.22;100.00;102198.59;6180777;23;20004;-82
2022/08/25 02:39:17;;;;;;;5.65;2.20;;;;;;;13.52;100.00;102230.13;6213539;23;20004;-83
2022/08/25 02:41:43;;;;;;;4.40;2.20;;;;;;;12.37;100.00;102054.59;6213964;23;20045;-82
2022/08/25 02:44:08;;;;;;;2.35;2.00;;;;;;;12.49;100.00;102073.94;6188683;23;19997;-83
2022/08/25 02:46:36;;;;;;;3.95;2.20;;;;;;;12.45;100.00;102062.66;6213787;23;20049;-84
2022/08/25 02:54:06;;;;;;;4.57;2.20;;;;;;;12.62;100.00;102100.31;6183680;23;20110;-84
2022/08/25 03:01:44;;;;;;;5.82;2.10;;;;;;;12.52;100.00;102078.13;6183513;23;20024;-83
2022/08/25 03:04:10;;;;;;;5.55;2.30;;;;;;;12.12;100.00;102028.81;6184308;23;20017;-83
2022/08/25 03:06:36;;;;;;;3.92;1.80;;;;;;;13.78;100.00;102302.75;6183920;23;20024;-83
2022/08/25 03:09:03;;;;;;;2.22;1.83;;;;;;;13.73;100.00;102283.50;6184415;23;19993;-83
2022/08/25 03:11:28;;;;;;;6.25;2.25;;;;;;;13.79;100.00;102304.41;6183912;23;19990;-83
2022/08/25 03:13:55;;;;;;;4.47;2.22;;;;;;;12.21;100.00;102050.16;6158611;23;20004;-84
2022/08/25 03:16:21;;;;;;;5.63;1.90;;;;;;;12.35;100.00;102072.00;6191621;22;20005;-83
2022/08/25 03:18:48;;;;;;;4.78;2.28;;;;;;;12.16;100.00;102036.38;6243494;23;20009;-83
2022/08/25 03:21:14;;;;;;;2.88;2.15;;;;;;;12.77;100.00;102128.22;6216708;23;20023;-82
2022/08/25 03:28:51;;;;;;;4.60;2.03;;;;;;;12.25;100.00;102049.78;6196339;23;20008;-79
2022/08/25 03:36:27;;;;;;;3.03;1.85;;;;;;;13.38;100.00;102218.25;6188969;23;20017;-79
2022/08/25 03:44:06;;;;;;;3.92;1.80;;;;;;;13.74;100.00;102270.81;6190520;23;21014;-79
2022/08/25 03:46:36;;;;;;;6.00;2.30;;;;;;;12.21;100.00;102042.06;6181639;23;20065;-84
2022/08/25 03:49:05;;;;;;;4.63;1.80;;;;;;;12.78;100.00;102129.03;6182970;23;20296;-85
2022/08/25 03:51:39;;;;;;;4.18;2.10;;;;;;;12.10;100.00;102052.44;6158635;23;19989;-83
2022/08/25 04:07:01;;;;;;;3.13;2.00;;;;;;;13.52;100.00;102291.47;6197032;22;20005;-84
2022/08/25 04:09:26;;;;;;;5.93;2.30;;;;;;;12.28;100.00;102098.03;6212863;23;20001;-84
2022/08/25 04:17:03;;;;;;;4.30;2.10;;;;;;;12.41;100.00;102055.91;6185909;23;20010;-84
2022/08/25 04:19:28;;;;;;;4.63;2.20;;;;;;;13.25;100.00;102098.25;6183429;23;20016;-84
2022/08/25 04:21:54;;;;;;;3.70;2.00;;;;;;;13.56;100.00;102074.56;6157552;23;20013;-84
2022/08/25 04:24:20;;;;;;;4.00;2.30;;;;;;;14.29;100.00;102123.31;6157993;23;20021;-83
2022/08/25 04:26:49;;;;;;;6.05;2.03;;;;;;;14.87;100.00;102136.88;6182212;23;19990;-82
2022/08/25 04:44:46;;;;;;;3.85;1.92;;;;;;;16.61;87.67;102066.91;6207344;23;20024;-83
2022/08/25 04:47:15;;;;;;;3.90;2.00;;;;;;;17.06;86.98;102110.66;6217060;23;19997;-83
2022/08/25 04:49:41;;;;;;;3.28;2.00;;;;;;;16.77;85.53;102028.50;6242100;23;20020;-84
2022/08/25 04:52:06;;;;;;;4.82;2.10;;;;;;;17.08;83.75;102035.13;6243278;23;20036;-80
2022/08/25 04:54:32;;;;;;;4.68;1.88;;;;;;;18.22;81.68;102151.63;6242778;23;20009;-84
2022/08/25 04:56:57;;;;;;;4.05;1.98;;;;;;;17.96;80.34;102076.31;6243415;23;20009;-83
2022/08/25 04:59:25;;;;;;;5.88;1.70;;;;;;;17.85;79.79;102041.59;6242307;23;20009;-84
2022/08/25 05:01:51;;;;;;;3.85;1.60;;;;;;;18.48;77.84;102090.66;6242745;23;20043;-82
2022/08/25 05:04:20;;;;;;;3.85;1.63;;;;;;;18.45;76.49;102031.16;6217629;23;19993;-83
2022/08/25 05:06:46;;;;;;;5.20;1.98;;;;;;;19.51;73.88;102143.94;6242858;23;20024;-82
2022/08/25 05:14:23;;;;;;;2.55;1.70;;;;;;;21.16;69.51;102270.56;6212421;23;20328;-83
2022/08/25 05:16:51;;;;;;;5.30;1.67;;;;;;;20.46;68.28;102137.94;6185537;23;20044;-83
2022/08/25 05:19:18;;;;;;;6.40;1.73;;;;;;;20.38;68.39;102125.44;6186293;23;20013;-82
2022/08/25 05:21:44;;;;;;;7.38;1.70;;;;;;;19.78;69.40;102080.88;6171401;23;20061;-83
2022/08/25 05:26:44;;;;;;;2.38;1.60;;;;;;;20.41;67.96;102148.75;6212189;22;20005;-83
2022/08/25 05:29:10;;;;;;;4.13;1.80;;;;;;;21.01;68.90;102280.03;6186198;23;20027;-84
2022/08/25 05:31:36;;;;;;;5.20;1.67;;;;;;;19.13;75.90;102213.13;6212693;23;20000;-84
2022/08/25 05:34:08;;;;;;;2.15;1.52;;;;;;;18.22;85.16;102297.91;6186707;23;20003;-84
2022/08/25 05:36:34;;;;;;;2.63;1.50;;;;;;;16.50;89.72;102092.00;6211876;23;20011;-84
2022/08/25 05:39:00;;;;;;;5.47;1.60;;;;;;;16.80;92.06;102174.03;6185724;23;20028;-84
2022/08/25 05:41:29;;;;;;;7.63;1.65;;;;;;;15.96;93.21;102062.00;6187118;23;20016;-83
2022/08/25 05:43:55;;;;;;;6.18;1.80;;;;;;;16.38;94.89;102151.53;6172012;23;20752;-76
2022/08/25 05:46:22;;;;;;;6.35;1.80;;;;;;;16.04;94.05;102060.97;6213467;23;20048;-83
2022/08/25 05:48:48;;;;;;;7.15;1.75;;;;;;;16.35;94.07;102103.88;6188549;23;20017;-83
2022/08/25 05:51:15;;;;;;;7.18;2.28;;;;;;;16.01;94.84;102055.97;6189343;23;20017;-84
2022/08/25 05:53:44;;;;;;;4.88;1.80;;;;;;;16.05;94.47;102043.63;6214748;23;19989;-84
2022/08/25 05:56:10;;;;;;;8.77;2.00;;;;;;;16.04;94.69;102041.97;6214308;23;19997;-84
2022/08/25 06:06:23;;;;;;;12.23;2.20;;;;;;;17.88;94.94;102285.38;6243487;23;20012;-84
2022/08/25 06:08:49;;;;;;;9.07;1.63;;;;;;;17.82;95.70;102282.47;6218869;23;19997;-84
2022/08/25 06:11:15;;;;;;;7.95;2.00;;;;;;;16.67;94.89;102077.78;6244395;23;19992;-84
2022/08/25 06:13:41;;;;;;;10.82;2.30;;;;;;;17.13;94.35;102125.94;6244132;23;20035;-84
2022/08/25 06:16:07;;;;;;;11.68;2.10;;;;;;;18.30;94.38;102289.50;6218058;23;19996;-84
2022/08/25 06:18:32;;;;;;;7.90;1.98;;;;;;;18.39;93.73;102265.56;6217647;23;20016;-83
2022/08/25 06:20:58;;;;;;;5.00;1.90;;;;;;;18.58;93.43;102272.84;6243306;23;20151;-84
2022/08/25 06:23:23;;;;;;;6.78;1.88;;;;;;;18.97;92.75;102290.91;6243844;23;19991;-83
2022/08/25 06:25:50;;;;;;;5.47;2.10;;;;;;;19.01;92.17;102288.59;6217176;23;19993;-84
2022/08/25 06:28:15;;;;;;;11.90;2.08;;;;;;;19.23;91.68;102302.69;6244376;23;20013;-84
2022/08/25 06:30:41;;;;;;;14.63;2.30;;;;;;;19.33;90.78;102280.38;6243096;23;20462;-84
2022/08/25 06:33:06;;;;;;;12.70;2.20;;;;;;;19.56;91.05;102305.19;6243883;23;19997;-84
2022/08/25 06:35:32;;;;;;;10.77;2.20;;;;;;;19.35;91.67;102281.00;6243886;23;20023;-85
2022/08/25 06:37:57;;;;;;;8.00;2.28;;;;;;;19.31;91.80;102268.88;6216412;23;20260;-84
2022/08/25 06:40:24;;;;;;;10.02;2.60;;;;;;;19.63;91.31;102292.34;6191871;23;20013;-85
2022/08/25 06:42:50;;;;;;;10.23;2.38;;;;;;;20.01;90.42;102313.22;6217821;23;20023;-85
2022/08/25 06:45:15;;;;;;;12.13;2.72;;;;;;;20.15;89.66;102309.28;6243746;23;20008;-84
2022/08/25 06:47:41;;;;;;;12.50;2.40;;;;;;;20.05;88.91;102267.16;6216906;23;20004;-83
2022/08/25 06:50:09;;;;;;;13.05;2.67;;;;;;;20.44;88.96;102317.81;6218394;23;19999;-84
2022/08/25 06:52:35;;;;;;;17.73;3.10;;;;;;;20.71;88.16;102314.78;6243426;23;19989;-84
2022/08/25 06:55:01;;;;;;;12.75;2.80;;;;;;;20.90;87.22;102319.16;6218358;23;20064;-84
2022/08/25 06:57:27;;;;;;;11.75;2.55;;;;;;;20.79;87.82;102308.97;6218611;23;20040;-85
2022/08/25 07:02:38;;;;;;;12.70;2.70;;;;;;;21.06;87.41;102315.78;6211833;23;20654;31
2022/08/25 07:32:46;;;;;;;5.28;2.25;;;;;;;22.03;89.10;102257.09;6200606;22;20056;-76
2022/08/25 09:12:26;;;;;;;5.72;2.00;;;;;;;24.00;91.15;102317.03;6191472;22;20032;31
2022/08/25 10:53:34;;;;;;;3.15;1.20;;;;;;;25.37;61.88;102217.88;6199301;23;20073;-82
2022/08/25 11:08:59;;;;;;;2.90;1.23;;;;;;;24.18;62.88;102005.97;6238758;23;20009;-85
2022/08/25 11:11:33;;;;;;;5.72;1.58;;;;;;;24.50;61.51;102033.53;6244731;23;19988;-84
2022/08/25 11:14:02;;;;;;;3.13;1.35;;;;;;;25.76;61.26;102215.63;6187290;23;20017;-83
2022/08/25 11:34:36;;;;;;;2.92;1.20;;;;;;;23.45;66.30;102063.97;6233591;23;20016;-84
2022/08/25 11:42:33;;;;;;;2.30;1.20;;;;;;;23.78;72.31;102196.91;6205910;23;20037;-84
2022/08/25 11:45:37;;;;;;;2.13;1.20;;;;;;;23.56;72.18;102204.22;6220752;23;20056;-83
2022/08/25 11:53:23;;;;;;;1.60;1.00;;;;;;;23.28;76.18;102207.91;6154315;23;20073;-83
2022/08/25 12:00:58;;;;;;;3.47;1.42;;;;;;;22.64;83.77;102125.84;6178738;23;20021;-80
2022/08/25 12:03:52;;;;;;;14.60;2.45;;;;;;;23.03;81.47;102187.19;6150226;23;20012;-83
2022/08/25 12:06:25;;;;;;;3.08;1.33;;;;;;;22.83;82.58;102160.19;6156672;23;20060;-82
2022/08/25 12:09:02;;;;;;;3.42;1.40;;;;;;;22.91;82.77;102140.59;6182595;23;20118;-83
2022/08/25 12:11:53;;;;;;;4.78;1.58;;;;;;;23.40;81.62;102201.25;6183863;23;20048;-84
2022/08/25 12:14:21;;;;;;;4.63;1.20;;;;;;;23.50;81.08;102188.75;6183090;23;20013;-82
2022/08/25 12:16:50;;;;;;;2.58;1.15;;;;;;;23.58;78.67;102193.84;6183715;23;20001;-82
2022/08/25 12:19:25;;;;;;;4.00;1.20;;;;;;;23.68;78.00;102194.00;6152875;23;20045;-81
2022/08/25 12:21:54;;;;;;;4.30;1.35;;;;;;;23.20;76.65;102115.78;6180255;23;19989;-81
2022/08/25 12:24:41;;;;;;;3.92;1.30;;;;;;;23.70;76.39;102180.00;6155505;23;20089;-83
2022/08/25 12:27:37;;;;;;;4.07;1.27;;;;;;;23.78;75.10;102177.66;6154578;23;20076;-82
2022/08/25 12:30:27;;;;;;;4.80;1.20;;;;;;;22.84;75.45;102012.84;6182436;23;20017;-82
2022/08/25 12:33:17;;;;;;;2.25;1.10;;;;;;;22.75;75.05;101982.25;6164522;23;20020;-82
2022/08/25 12:35:56;;;;;;;3.75;1.20;;;;;;;23.35;75.58;102098.72;6182612;23;20041;-83
2022/08/25 12:39:06;;;;;;;5.07;1.52;;;;;;;23.76;77.60;102166.06;6180776;23;19993;-82
2022/08/25 12:41:32;;;;;;;2.83;1.30;;;;;;;22.59;78.63;102000.41;6126831;23;20056;-82
2022/08/25 12:46:43;;;;;;;3.13;1.30;;;;;;;22.42;76.98;101959.28;6206622;23;20028;-82
2022/08/25 12:49:33;;;;;;;3.22;1.40;;;;;;;23.73;78.38;102158.31;6231493;23;20001;-82
2022/08/25 13:25:31;;;;;;;2.58;1.20;;;;;;;21.85;81.84;101929.22;6181225;23;20013;-84
2022/08/25 13:28:00;;;;;;;2.33;1.30;;;;;;;21.84;83.42;101919.34;6181015;23;19996;-83
2022/08/25 13:30:30;;;;;;;2.13;1.17;;;;;;;23.07;83.74;102114.22;6181453;23;20009;-83
2022/08/25 13:32:57;;;;;;;3.45;1.10;;;;;;;22.75;86.22;102039.88;6156841;23;20004;-83
2022/08/25 13:35:25;;;;;;;2.53;1.20;;;;;;;22.65;86.40;102020.50;6181110;23;20195;-82
2022/08/25 13:37:52;;;;;;;2.95;1.17;;;;;;;22.11;85.89;101948.84;6179643;23;20045;-82
2022/08/25 13:40:25;;;;;;;2.75;1.17;;;;;;;23.02;88.13;102116.91;6181623;23;20002;-83
2022/08/25 13:53:24;;;;;;;4.18;1.50;;;;;;;22.79;91.81;102095.94;6222538;23;20013;-82
2022/08/25 13:58:35;;;;;;;4.17;1.37;;;;;;;22.67;89.63;102086.94;6213396;23;20031;-80
2022/08/25 14:01:06;;;;;;;4.18;1.20;;;;;;;22.71;89.63;102093.56;6149261;23;20014;-82
2022/08/25 14:17:39;;;;;;;3.00;1.20;;;;;;;22.24;78.98;102003.38;6232169;23;20092;-84
2022/08/25 14:25:16;;;;;;;2.45;1.15;;;;;;;22.13;80.42;101965.88;6238469;22;20038;-82
2022/08/25 14:27:43;;;;;;;2.25;1.00;;;;;;;22.21;76.30;101985.50;6243936;23;20000;-82
2022/08/25 14:30:10;;;;;;;2.47;1.23;;;;;;;21.42;76.90;101843.00;6217716;23;20020;-82
2022/08/25 14:42:56;;;;;;;2.30;0.95;;;;;;;21.38;74.84;101810.88;6234956;23;20009;-83
2022/08/25 14:45:22;;;;;;;3.63;1.08;;;;;;;21.77;76.54;101859.22;6214798;23;20012;-83
2022/08/25 14:47:48;;;;;;;3.38;1.10;;;;;;;22.14;78.01;101924.50;6241925;23;20009;-80
2022/08/25 14:50:14;;;;;;;1.65;0.85;;;;;;;22.20;80.56;101941.91;6217115;23;19997;-84
2022/08/25 14:52:41;;;;;;;6.30;1.13;;;;;;;21.71;78.43;101856.66;6242677;23;20015;-83
2022/08/25 15:05:28;;;;;;;3.05;1.50;;;;;;;21.64;84.82;101815.72;6205490;23;20021;-84
2022/08/25 15:10:39;;;;;;;3.70;1.52;;;;;;;22.76;87.47;101981.16;6212578;23;19992;-83
2022/08/25 15:18:16;;;;;;;3.33;1.20;;;;;;;21.91;91.75;101815.03;6193771;23;20027;-79
2022/08/25 15:20:41;;;;;;;4.15;1.30;;;;;;;22.03;90.68;101835.81;6223586;23;20009;-80
2022/08/25 15:28:18;;;;;;;2.78;1.15;;;;;;;21.54;79.83;101749.81;6210265;23;20008;-81
2022/08/25 15:48:43;;;;;;;3.58;1.17;;;;;;;22.42;81.33;101802.94;6150701;23;20018;-82
2022/08/25 15:56:20;;;;;;;5.00;1.38;;;;;;;22.80;80.39;101838.78;6198968;23;20009;-82
2022/08/25 15:58:46;;;;;;;2.15;1.33;;;;;;;23.47;80.04;101911.78;6213565;23;20028;-83
2022/08/25 16:01:14;;;;;;;3.30;1.17;;;;;;;22.30;79.69;101716.41;6187904;23;20013;-80
2022/08/25 16:03:40;;;;;;;2.13;1.38;;;;;;;22.40;78.66;101735.72;6213133;23;20017;-82
2022/08/25 16:06:07;;;;;;;3.25;1.60;;;;;;;22.84;80.78;101794.09;6187713;23;20016;-82
2022/08/25 16:08:33;;;;;;;2.75;1.40;;;;;;;23.56;80.35;101885.50;6213135;23;20004;-81
2022/08/25 16:13:34;;;;;;;2.90;1.40;;;;;;;23.46;82.53;101883.50;6202012;23;20009;-84
2022/08/25 17:05:08;;;;;;;2.30;1.55;;;;;;;22.85;78.63;101721.69;6203080;23;20000;-77
2022/08/25 19:28:05;;;;;;;5.43;2.08;;;;;;;19.29;100.00;101766.09;6212129;23;20553;-84
2022/08/25 20:09:20;;;;;;;4.03;1.95;;;;;;;17.24;100.00;101602.19;6126203;23;1365663;-84
2022/08/25 20:22:07;;;;;;;3.22;1.90;;;;;;;16.94;100.00;101582.19;6201551;23;20017;-84
2022/08/25 20:24:49;;;;;;;5.45;2.47;;;;;;;18.49;100.00;101824.41;6183654;23;20025;-85
2022/08/25 20:29:50;;;;;;;3.70;2.30;;;;;;;16.93;100.00;101599.56;6167262;23;20035;-84
2022/08/25 20:40:03;;;;;;;5.30;2.40;;;;;;;18.44;100.00;101814.19;6172663;23;20048;-84
2022/08/25 20:42:29;;;;;;;3.33;2.20;;;;;;;17.77;100.00;101702.38;6190863;22;20031;-84
2022/08/25 21:59:54;;;;;;;2.97;1.40;;;;;;;18.75;98.24;101633.25;6209787;22;20008;-85
2022/08/25 22:02:24;;;;;;;3.10;1.40;;;;;;;19.00;98.50;101675.88;6220825;23;20023;-85
